sensor_id;sensor_type;location;lat;lon;timestamp;temperature;humidity
51615;DHT22;37695;52.960;6.188;2023-05-16T00:02:17;8.90;99.90
51615;DHT22;37695;52.960;6.188;2023-05-16T00:04:43;8.90;99.90
51615;DHT22;37695;52.960;6.188;2023-05-16T00:07:10;8.90;99.90
51615;DHT22;37695;52.960;6.188;2023-05-16T00:09:36;8.80;99.90
51615;DHT22;37695;52.960;6.188;2023-05-16T00:12:01;8.80;99.90
51615;DHT22;37695;52.960;6.188;2023-05-16T00:14:27;8.80;99.90
51615;DHT22;37695;52.960;6.188;2023-05-16T00:16:53;8.70;99.90
51615;DHT22;37695;52.960;6.188;2023-05-16T00:19:19;8.70;99.90
51615;DHT22;37695;52.960;6.188;2023-05-16T00:21:45;8.60;99.90
51615;DHT22;37695;52.960;6.188;2023-05-16T00:24:10;8.60;99.90
51615;DHT22;37695;52.960;6.188;2023-05-16T00:26:36;8.60;99.90
51615;DHT22;37695;52.960;6.188;2023-05-16T00:29:01;8.60;99.90
51615;DHT22;37695;52.960;6.188;2023-05-16T00:31:27;8.60;99.90
51615;DHT22;37695;52.960;6.188;2023-05-16T00:33:53;8.60;99.90
51615;DHT22;37695;52.960;6.188;2023-05-16T00:36:19;8.50;99.90
51615;DHT22;37695;52.960;6.188;2023-05-16T00:38:46;8.50;99.90
51615;DHT22;37695;52.960;6.188;2023-05-16T00:41:12;8.50;99.90
51615;DHT22;37695;52.960;6.188;2023-05-16T00:43:37;8.40;99.90
51615;DHT22;37695;52.960;6.188;2023-05-16T00:46:04;8.40;99.90
51615;DHT22;37695;52.960;6.188;2023-05-16T00:48:30;8.40;99.90
51615;DHT22;37695;52.960;6.188;2023-05-16T00:50:56;8.30;99.90
51615;DHT22;37695;52.960;6.188;2023-05-16T00:53:23;8.30;99.90
51615;DHT22;37695;52.960;6.188;2023-05-16T00:55:48;8.20;99.90
51615;DHT22;37695;52.960;6.188;2023-05-16T00:58:15;8.30;99.90
51615;DHT22;37695;52.960;6.188;2023-05-16T01:00:41;8.20;99.90
51615;DHT22;37695;52.960;6.188;2023-05-16T01:03:07;8.20;99.90
51615;DHT22;37695;52.960;6.188;2023-05-16T01:05:33;8.10;99.90
51615;DHT22;37695;52.960;6.188;2023-05-16T01:07:58;8.10;99.90
51615;DHT22;37695;52.960;6.188;2023-05-16T01:10:25;8.10;99.90
51615;DHT22;37695;52.960;6.188;2023-05-16T01:13:11;8.10;99.90
51615;DHT22;37695;52.960;6.188;2023-05-16T01:15:49;8.00;99.90
51615;DHT22;37695;52.960;6.188;2023-05-16T01:18:24;8.00;99.90
51615;DHT22;37695;52.960;6.188;2023-05-16T01:20:58;7.90;99.90
51615;DHT22;37695;52.960;6.188;2023-05-16T01:23:48;7.90;99.90
51615;DHT22;37695;52.960;6.188;2023-05-16T01:26:24;7.90;99.90
51615;DHT22;37695;52.960;6.188;2023-05-16T01:28:51;7.80;99.90
51615;DHT22;37695;52.960;6.188;2023-05-16T01:31:18;7.80;99.90
51615;DHT22;37695;52.960;6.188;2023-05-16T01:33:44;7.90;99.90
51615;DHT22;37695;52.960;6.188;2023-05-16T01:36:25;7.80;99.90
51615;DHT22;37695;52.960;6.188;2023-05-16T01:39:13;7.80;99.90
51615;DHT22;37695;52.960;6.188;2023-05-16T01:47:00;7.90;99.90
51615;DHT22;37695;52.960;6.188;2023-05-16T01:49:34;7.90;99.90
51615;DHT22;37695;52.960;6.188;2023-05-16T01:52:05;7.90;99.90
51615;DHT22;37695;52.960;6.188;2023-05-16T01:54:32;7.90;99.90
51615;DHT22;37695;52.960;6.188;2023-05-16T01:57:03;7.90;99.90
51615;DHT22;37695;52.960;6.188;2023-05-16T01:59:29;7.90;99.90
51615;DHT22;37695;52.960;6.188;2023-05-16T02:01:56;7.90;99.90
51615;DHT22;37695;52.960;6.188;2023-05-16T02:04:22;7.90;99.90
51615;DHT22;37695;52.960;6.188;2023-05-16T02:06:49;7.90;99.90
51615;DHT22;37695;52.960;6.188;2023-05-16T02:09:15;7.90;99.90
51615;DHT22;37695;52.960;6.188;2023-05-16T02:11:41;7.80;99.90
51615;DHT22;37695;52.960;6.188;2023-05-16T02:14:06;7.80;99.90
51615;DHT22;37695;52.960;6.188;2023-05-16T02:16:33;7.80;99.90
51615;DHT22;37695;52.960;6.188;2023-05-16T02:18:58;7.80;99.90
51615;DHT22;37695;52.960;6.188;2023-05-16T02:21:24;7.70;99.90
51615;DHT22;37695;52.960;6.188;2023-05-16T02:23:50;7.70;99.90
51615;DHT22;37695;52.960;6.188;2023-05-16T02:26:15;7.70;99.90
51615;DHT22;37695;52.960;6.188;2023-05-16T02:28:41;7.70;99.90
51615;DHT22;37695;52.960;6.188;2023-05-16T02:31:06;7.70;99.90
51615;DHT22;37695;52.960;6.188;2023-05-16T02:33:32;7.70;99.90
51615;DHT22;37695;52.960;6.188;2023-05-16T02:35:59;7.60;99.90
51615;DHT22;37695;52.960;6.188;2023-05-16T02:38:24;7.60;99.90
51615;DHT22;37695;52.960;6.188;2023-05-16T02:40:50;7.60;99.90
51615;DHT22;37695;52.960;6.188;2023-05-16T02:43:16;7.60;99.90
51615;DHT22;37695;52.960;6.188;2023-05-16T02:45:41;7.50;99.90
51615;DHT22;37695;52.960;6.188;2023-05-16T02:48:07;7.50;99.90
51615;DHT22;37695;52.960;6.188;2023-05-16T02:50:33;7.50;99.90
51615;DHT22;37695;52.960;6.188;2023-05-16T02:52:59;7.40;99.90
51615;DHT22;37695;52.960;6.188;2023-05-16T02:55:27;7.40;99.90
51615;DHT22;37695;52.960;6.188;2023-05-16T02:57:52;7.40;99.90
51615;DHT22;37695;52.960;6.188;2023-05-16T03:00:18;7.40;99.90
51615;DHT22;37695;52.960;6.188;2023-05-16T03:02:44;7.30;99.90
51615;DHT22;37695;52.960;6.188;2023-05-16T03:05:10;7.30;99.90
51615;DHT22;37695;52.960;6.188;2023-05-16T03:07:36;7.20;99.90
51615;DHT22;37695;52.960;6.188;2023-05-16T03:10:03;7.20;99.90
51615;DHT22;37695;52.960;6.188;2023-05-16T03:12:28;7.20;99.90
51615;DHT22;37695;52.960;6.188;2023-05-16T03:14:54;7.20;99.90
51615;DHT22;37695;52.960;6.188;2023-05-16T03:17:19;7.10;99.90
51615;DHT22;37695;52.960;6.188;2023-05-16T03:19:45;7.10;99.90
51615;DHT22;37695;52.960;6.188;2023-05-16T03:22:11;7.10;99.90
51615;DHT22;37695;52.960;6.188;2023-05-16T03:24:36;7.10;99.90
51615;DHT22;37695;52.960;6.188;2023-05-16T03:27:02;7.10;99.90
51615;DHT22;37695;52.960;6.188;2023-05-16T03:29:29;7.10;99.90
51615;DHT22;37695;52.960;6.188;2023-05-16T03:31:55;7.00;99.90
51615;DHT22;37695;52.960;6.188;2023-05-16T03:34:20;7.10;99.90
51615;DHT22;37695;52.960;6.188;2023-05-16T03:36:50;7.10;99.90
51615;DHT22;37695;52.960;6.188;2023-05-16T03:39:16;7.10;99.90
51615;DHT22;37695;52.960;6.188;2023-05-16T03:41:42;7.10;99.90
51615;DHT22;37695;52.960;6.188;2023-05-16T03:44:08;7.10;99.90
51615;DHT22;37695;52.960;6.188;2023-05-16T03:46:34;7.10;99.90
51615;DHT22;37695;52.960;6.188;2023-05-16T03:49:01;7.10;99.90
51615;DHT22;37695;52.960;6.188;2023-05-16T03:51:26;7.50;99.90
51615;DHT22;37695;52.960;6.188;2023-05-16T03:53:52;7.10;99.90
51615;DHT22;37695;52.960;6.188;2023-05-16T03:56:18;7.10;99.90
51615;DHT22;37695;52.960;6.188;2023-05-16T03:58:44;7.10;99.90
51615;DHT22;37695;52.960;6.188;2023-05-16T04:01:09;7.00;99.90
51615;DHT22;37695;52.960;6.188;2023-05-16T04:03:35;7.00;99.90
51615;DHT22;37695;52.960;6.188;2023-05-16T04:06:02;7.10;99.90
51615;DHT22;37695;52.960;6.188;2023-05-16T04:08:28;7.10;99.90
51615;DHT22;37695;52.960;6.188;2023-05-16T04:10:54;7.10;99.90
51615;DHT22;37695;52.960;6.188;2023-05-16T04:13:20;7.20;99.90
51615;DHT22;37695;52.960;6.188;2023-05-16T04:15:45;7.20;99.90
51615;DHT22;37695;52.960;6.188;2023-05-16T04:18:11;7.10;99.90
51615;DHT22;37695;52.960;6.188;2023-05-16T04:20:37;7.10;99.90
51615;DHT22;37695;52.960;6.188;2023-05-16T04:23:02;7.20;99.90
51615;DHT22;37695;52.960;6.188;2023-05-16T04:25:28;7.20;99.90
51615;DHT22;37695;52.960;6.188;2023-05-16T04:27:53;7.20;99.90
51615;DHT22;37695;52.960;6.188;2023-05-16T04:30:19;7.20;99.90
51615;DHT22;37695;52.960;6.188;2023-05-16T04:32:45;7.20;99.90
51615;DHT22;37695;52.960;6.188;2023-05-16T04:35:10;7.20;99.90
51615;DHT22;37695;52.960;6.188;2023-05-16T04:37:36;7.20;99.90
51615;DHT22;37695;52.960;6.188;2023-05-16T04:40:02;7.20;99.90
51615;DHT22;37695;52.960;6.188;2023-05-16T04:42:28;7.20;99.90
51615;DHT22;37695;52.960;6.188;2023-05-16T04:44:53;7.30;99.90
51615;DHT22;37695;52.960;6.188;2023-05-16T04:47:20;7.30;99.90
51615;DHT22;37695;52.960;6.188;2023-05-16T04:49:46;7.40;99.90
51615;DHT22;37695;52.960;6.188;2023-05-16T04:52:11;7.40;99.90
51615;DHT22;37695;52.960;6.188;2023-05-16T04:54:37;7.40;99.90
51615;DHT22;37695;52.960;6.188;2023-05-16T04:57:03;7.50;99.90
51615;DHT22;37695;52.960;6.188;2023-05-16T04:59:29;7.60;99.90
51615;DHT22;37695;52.960;6.188;2023-05-16T05:01:54;7.60;99.90
51615;DHT22;37695;52.960;6.188;2023-05-16T05:04:20;7.70;99.90
51615;DHT22;37695;52.960;6.188;2023-05-16T05:06:47;7.80;99.90
51615;DHT22;37695;52.960;6.188;2023-05-16T05:09:12;7.80;99.90
51615;DHT22;37695;52.960;6.188;2023-05-16T05:11:38;7.90;99.90
51615;DHT22;37695;52.960;6.188;2023-05-16T05:14:03;7.90;99.90
51615;DHT22;37695;52.960;6.188;2023-05-16T05:16:29;7.90;99.90
51615;DHT22;37695;52.960;6.188;2023-05-16T05:18:54;8.00;99.90
51615;DHT22;37695;52.960;6.188;2023-05-16T05:21:20;8.10;99.90
51615;DHT22;37695;52.960;6.188;2023-05-16T05:23:46;8.10;99.90
51615;DHT22;37695;52.960;6.188;2023-05-16T05:26:14;8.20;99.90
51615;DHT22;37695;52.960;6.188;2023-05-16T05:28:39;8.20;99.90
51615;DHT22;37695;52.960;6.188;2023-05-16T05:31:05;8.30;99.90
51615;DHT22;37695;52.960;6.188;2023-05-16T05:33:32;8.30;99.90
51615;DHT22;37695;52.960;6.188;2023-05-16T05:35:58;8.40;99.90
51615;DHT22;37695;52.960;6.188;2023-05-16T05:38:23;8.50;99.90
51615;DHT22;37695;52.960;6.188;2023-05-16T05:40:49;8.60;99.90
51615;DHT22;37695;52.960;6.188;2023-05-16T05:43:14;8.60;99.90
51615;DHT22;37695;52.960;6.188;2023-05-16T05:45:40;8.70;99.90
51615;DHT22;37695;52.960;6.188;2023-05-16T05:48:06;8.70;99.90
51615;DHT22;37695;52.960;6.188;2023-05-16T05:50:32;8.90;99.90
51615;DHT22;37695;52.960;6.188;2023-05-16T05:52:58;8.90;99.90
51615;DHT22;37695;52.960;6.188;2023-05-16T05:55:24;9.00;99.90
51615;DHT22;37695;52.960;6.188;2023-05-16T05:57:49;9.10;99.90
51615;DHT22;37695;52.960;6.188;2023-05-16T06:00:15;9.20;99.90
51615;DHT22;37695;52.960;6.188;2023-05-16T06:02:41;9.30;99.90
51615;DHT22;37695;52.960;6.188;2023-05-16T06:05:07;9.40;99.90
51615;DHT22;37695;52.960;6.188;2023-05-16T06:07:33;9.50;99.90
51615;DHT22;37695;52.960;6.188;2023-05-16T06:09:58;9.60;99.90
51615;DHT22;37695;52.960;6.188;2023-05-16T06:12:28;9.70;99.90
51615;DHT22;37695;52.960;6.188;2023-05-16T06:14:54;9.80;99.90
51615;DHT22;37695;52.960;6.188;2023-05-16T06:17:20;9.80;99.90
51615;DHT22;37695;52.960;6.188;2023-05-16T06:19:45;9.90;99.90
51615;DHT22;37695;52.960;6.188;2023-05-16T06:22:11;10.10;99.90
51615;DHT22;37695;52.960;6.188;2023-05-16T06:24:36;10.10;99.90
51615;DHT22;37695;52.960;6.188;2023-05-16T06:27:02;10.20;99.90
51615;DHT22;37695;52.960;6.188;2023-05-16T06:29:27;10.20;99.90
51615;DHT22;37695;52.960;6.188;2023-05-16T06:31:53;10.30;99.90
51615;DHT22;37695;52.960;6.188;2023-05-16T06:34:19;10.30;99.90
51615;DHT22;37695;52.960;6.188;2023-05-16T06:36:48;10.20;99.90
51615;DHT22;37695;52.960;6.188;2023-05-16T06:39:13;10.10;99.90
51615;DHT22;37695;52.960;6.188;2023-05-16T06:41:39;10.00;99.90
51615;DHT22;37695;52.960;6.188;2023-05-16T06:44:04;9.90;99.90
51615;DHT22;37695;52.960;6.188;2023-05-16T06:46:30;9.80;99.90
51615;DHT22;37695;52.960;6.188;2023-05-16T06:48:56;9.80;99.90
51615;DHT22;37695;52.960;6.188;2023-05-16T06:51:21;9.90;99.90
51615;DHT22;37695;52.960;6.188;2023-05-16T06:53:47;10.10;99.90
51615;DHT22;37695;52.960;6.188;2023-05-16T06:56:13;10.30;99.90
51615;DHT22;37695;52.960;6.188;2023-05-16T06:58:38;10.70;99.90
51615;DHT22;37695;52.960;6.188;2023-05-16T07:01:04;11.20;99.90
51615;DHT22;37695;52.960;6.188;2023-05-16T07:03:29;11.40;99.90
51615;DHT22;37695;52.960;6.188;2023-05-16T07:05:56;11.20;99.90
51615;DHT22;37695;52.960;6.188;2023-05-16T07:08:23;10.90;99.90
51615;DHT22;37695;52.960;6.188;2023-05-16T07:10:48;10.60;99.90
51615;DHT22;37695;52.960;6.188;2023-05-16T07:13:14;10.40;99.90
51615;DHT22;37695;52.960;6.188;2023-05-16T07:15:39;10.10;99.90
51615;DHT22;37695;52.960;6.188;2023-05-16T07:18:05;10.00;99.90
51615;DHT22;37695;52.960;6.188;2023-05-16T07:20:30;10.00;99.90
51615;DHT22;37695;52.960;6.188;2023-05-16T07:22:56;10.00;99.90
51615;DHT22;37695;52.960;6.188;2023-05-16T07:25:23;10.20;99.90
51615;DHT22;37695;52.960;6.188;2023-05-16T07:27:48;10.40;99.90
51615;DHT22;37695;52.960;6.188;2023-05-16T07:30:14;10.50;99.90
51615;DHT22;37695;52.960;6.188;2023-05-16T07:32:40;10.60;99.90
51615;DHT22;37695;52.960;6.188;2023-05-16T07:35:06;10.80;99.90
51615;DHT22;37695;52.960;6.188;2023-05-16T07:37:32;11.00;99.90
51615;DHT22;37695;52.960;6.188;2023-05-16T07:39:57;11.20;99.90
51615;DHT22;37695;52.960;6.188;2023-05-16T07:42:24;11.40;99.90
51615;DHT22;37695;52.960;6.188;2023-05-16T07:44:49;11.80;99.90
51615;DHT22;37695;52.960;6.188;2023-05-16T07:47:15;12.10;99.90
51615;DHT22;37695;52.960;6.188;2023-05-16T07:49:40;12.20;99.90
51615;DHT22;37695;52.960;6.188;2023-05-16T07:52:06;12.40;99.90
51615;DHT22;37695;52.960;6.188;2023-05-16T07:54:34;12.40;99.90
51615;DHT22;37695;52.960;6.188;2023-05-16T07:57:00;12.50;99.90
51615;DHT22;37695;52.960;6.188;2023-05-16T07:59:25;12.50;99.90
51615;DHT22;37695;52.960;6.188;2023-05-16T08:01:51;12.30;99.90
51615;DHT22;37695;52.960;6.188;2023-05-16T08:04:16;12.40;99.90
51615;DHT22;37695;52.960;6.188;2023-05-16T08:06:42;12.40;99.90
51615;DHT22;37695;52.960;6.188;2023-05-16T08:09:07;12.40;99.90
51615;DHT22;37695;52.960;6.188;2023-05-16T08:11:34;12.20;99.90
51615;DHT22;37695;52.960;6.188;2023-05-16T08:14:00;12.00;99.90
51615;DHT22;37695;52.960;6.188;2023-05-16T08:16:25;11.80;99.90
51615;DHT22;37695;52.960;6.188;2023-05-16T08:18:51;11.90;99.90
51615;DHT22;37695;52.960;6.188;2023-05-16T08:21:16;12.20;99.90
51615;DHT22;37695;52.960;6.188;2023-05-16T08:23:42;12.60;99.90
51615;DHT22;37695;52.960;6.188;2023-05-16T08:26:07;12.70;99.90
51615;DHT22;37695;52.960;6.188;2023-05-16T08:28:33;12.70;99.90
51615;DHT22;37695;52.960;6.188;2023-05-16T08:30:58;12.80;99.90
51615;DHT22;37695;52.960;6.188;2023-05-16T08:33:24;13.00;99.90
51615;DHT22;37695;52.960;6.188;2023-05-16T08:35:50;13.10;99.90
51615;DHT22;37695;52.960;6.188;2023-05-16T08:38:17;12.90;99.90
51615;DHT22;37695;52.960;6.188;2023-05-16T08:40:43;12.60;99.90
51615;DHT22;37695;52.960;6.188;2023-05-16T08:43:09;12.70;99.90
51615;DHT22;37695;52.960;6.188;2023-05-16T08:45:35;12.80;99.90
51615;DHT22;37695;52.960;6.188;2023-05-16T08:48:01;12.80;99.90
51615;DHT22;37695;52.960;6.188;2023-05-16T08:50:31;12.70;99.90
51615;DHT22;37695;52.960;6.188;2023-05-16T08:52:57;12.60;99.90
51615;DHT22;37695;52.960;6.188;2023-05-16T08:55:23;12.40;99.90
51615;DHT22;37695;52.960;6.188;2023-05-16T08:57:51;12.20;99.90
51615;DHT22;37695;52.960;6.188;2023-05-16T09:00:19;12.40;99.90
51615;DHT22;37695;52.960;6.188;2023-05-16T09:02:45;12.70;99.90
51615;DHT22;37695;52.960;6.188;2023-05-16T09:05:13;13.00;99.90
51615;DHT22;37695;52.960;6.188;2023-05-16T09:07:39;13.30;99.90
51615;DHT22;37695;52.960;6.188;2023-05-16T09:10:08;13.50;99.90
51615;DHT22;37695;52.960;6.188;2023-05-16T09:12:34;13.80;99.90
51615;DHT22;37695;52.960;6.188;2023-05-16T09:15:05;13.90;99.90
51615;DHT22;37695;52.960;6.188;2023-05-16T09:17:38;13.80;99.90
51615;DHT22;37695;52.960;6.188;2023-05-16T09:20:08;13.70;99.90
51615;DHT22;37695;52.960;6.188;2023-05-16T09:22:34;13.60;99.90
51615;DHT22;37695;52.960;6.188;2023-05-16T09:25:00;13.30;99.90
51615;DHT22;37695;52.960;6.188;2023-05-16T09:27:26;13.20;99.90
51615;DHT22;37695;52.960;6.188;2023-05-16T09:29:57;13.00;99.90
51615;DHT22;37695;52.960;6.188;2023-05-16T09:32:23;12.60;99.90
51615;DHT22;37695;52.960;6.188;2023-05-16T09:34:49;12.40;99.90
51615;DHT22;37695;52.960;6.188;2023-05-16T09:37:16;12.10;99.90
51615;DHT22;37695;52.960;6.188;2023-05-16T09:40:00;12.10;99.90
51615;DHT22;37695;52.960;6.188;2023-05-16T09:42:25;12.30;99.90
51615;DHT22;37695;52.960;6.188;2023-05-16T09:44:53;12.70;99.90
51615;DHT22;37695;52.960;6.188;2023-05-16T09:47:20;13.00;99.90
51615;DHT22;37695;52.960;6.188;2023-05-16T09:49:52;13.30;99.90
51615;DHT22;37695;52.960;6.188;2023-05-16T09:52:18;13.70;99.90
51615;DHT22;37695;52.960;6.188;2023-05-16T09:54:45;13.90;99.90
51615;DHT22;37695;52.960;6.188;2023-05-16T09:57:17;14.20;99.90
51615;DHT22;37695;52.960;6.188;2023-05-16T09:59:51;14.60;99.90
51615;DHT22;37695;52.960;6.188;2023-05-16T10:02:17;14.60;99.90
51615;DHT22;37695;52.960;6.188;2023-05-16T10:04:43;14.40;99.90
51615;DHT22;37695;52.960;6.188;2023-05-16T10:07:08;14.10;99.90
51615;DHT22;37695;52.960;6.188;2023-05-16T10:09:35;14.20;99.90
51615;DHT22;37695;52.960;6.188;2023-05-16T10:12:07;14.40;99.90
51615;DHT22;37695;52.960;6.188;2023-05-16T10:14:37;14.50;99.90
51615;DHT22;37695;52.960;6.188;2023-05-16T10:17:05;14.70;99.90
51615;DHT22;37695;52.960;6.188;2023-05-16T10:19:35;14.90;99.90
51615;DHT22;37695;52.960;6.188;2023-05-16T10:22:04;14.90;99.90
51615;DHT22;37695;52.960;6.188;2023-05-16T10:24:43;15.00;99.90
51615;DHT22;37695;52.960;6.188;2023-05-16T10:27:11;14.90;99.90
51615;DHT22;37695;52.960;6.188;2023-05-16T10:29:38;14.80;99.90
51615;DHT22;37695;52.960;6.188;2023-05-16T10:32:05;15.20;99.90
51615;DHT22;37695;52.960;6.188;2023-05-16T10:34:32;15.20;99.90
51615;DHT22;37695;52.960;6.188;2023-05-16T10:36:59;15.30;99.90
51615;DHT22;37695;52.960;6.188;2023-05-16T10:39:25;15.00;99.90
51615;DHT22;37695;52.960;6.188;2023-05-16T10:41:51;14.70;99.90
51615;DHT22;37695;52.960;6.188;2023-05-16T10:44:17;14.40;99.90
51615;DHT22;37695;52.960;6.188;2023-05-16T10:46:43;14.50;99.90
51615;DHT22;37695;52.960;6.188;2023-05-16T10:49:24;14.50;99.90
51615;DHT22;37695;52.960;6.188;2023-05-16T10:52:05;14.60;99.90
51615;DHT22;37695;52.960;6.188;2023-05-16T10:54:36;14.80;99.90
51615;DHT22;37695;52.960;6.188;2023-05-16T10:57:09;15.00;99.90
51615;DHT22;37695;52.960;6.188;2023-05-16T10:59:50;15.20;99.90
51615;DHT22;37695;52.960;6.188;2023-05-16T11:02:28;14.80;99.90
51615;DHT22;37695;52.960;6.188;2023-05-16T11:04:55;14.90;99.90
51615;DHT22;37695;52.960;6.188;2023-05-16T11:07:22;15.00;99.90
51615;DHT22;37695;52.960;6.188;2023-05-16T11:10:07;14.90;99.90
51615;DHT22;37695;52.960;6.188;2023-05-16T11:15:20;14.80;99.90
51615;DHT22;37695;52.960;6.188;2023-05-16T11:17:46;14.60;99.90
51615;DHT22;37695;52.960;6.188;2023-05-16T11:20:35;14.50;99.90
51615;DHT22;37695;52.960;6.188;2023-05-16T11:23:23;14.30;99.90
51615;DHT22;37695;52.960;6.188;2023-05-16T11:25:54;14.20;99.90
51615;DHT22;37695;52.960;6.188;2023-05-16T11:28:21;13.90;99.90
51615;DHT22;37695;52.960;6.188;2023-05-16T11:30:50;13.70;99.90
51615;DHT22;37695;52.960;6.188;2023-05-16T11:33:17;13.80;99.90
51615;DHT22;37695;52.960;6.188;2023-05-16T11:35:43;13.30;99.90
51615;DHT22;37695;52.960;6.188;2023-05-16T11:38:23;13.20;99.90
51615;DHT22;37695;52.960;6.188;2023-05-16T11:40:49;13.20;99.90
51615;DHT22;37695;52.960;6.188;2023-05-16T11:43:17;13.40;99.90
51615;DHT22;37695;52.960;6.188;2023-05-16T11:45:43;13.40;99.90
51615;DHT22;37695;52.960;6.188;2023-05-16T11:48:09;13.40;99.90
51615;DHT22;37695;52.960;6.188;2023-05-16T11:50:35;13.40;99.90
51615;DHT22;37695;52.960;6.188;2023-05-16T11:53:01;13.50;99.90
51615;DHT22;37695;52.960;6.188;2023-05-16T11:55:28;13.80;99.90
51615;DHT22;37695;52.960;6.188;2023-05-16T11:57:57;14.20;99.90
51615;DHT22;37695;52.960;6.188;2023-05-16T12:00:25;14.60;99.90
51615;DHT22;37695;52.960;6.188;2023-05-16T12:02:59;15.00;99.90
51615;DHT22;37695;52.960;6.188;2023-05-16T12:05:25;15.10;99.90
51615;DHT22;37695;52.960;6.188;2023-05-16T12:07:53;14.80;99.90
51615;DHT22;37695;52.960;6.188;2023-05-16T12:10:19;14.50;99.90
51615;DHT22;37695;52.960;6.188;2023-05-16T12:12:48;14.50;99.90
51615;DHT22;37695;52.960;6.188;2023-05-16T12:15:14;14.80;99.90
51615;DHT22;37695;52.960;6.188;2023-05-16T12:17:40;15.00;99.90
51615;DHT22;37695;52.960;6.188;2023-05-16T12:20:07;15.30;99.90
51615;DHT22;37695;52.960;6.188;2023-05-16T12:22:43;15.30;99.90
51615;DHT22;37695;52.960;6.188;2023-05-16T12:25:29;15.40;99.90
51615;DHT22;37695;52.960;6.188;2023-05-16T12:28:01;15.70;99.90
51615;DHT22;37695;52.960;6.188;2023-05-16T12:30:28;15.70;99.90
51615;DHT22;37695;52.960;6.188;2023-05-16T12:33:02;15.50;99.90
51615;DHT22;37695;52.960;6.188;2023-05-16T12:35:32;15.30;99.90
51615;DHT22;37695;52.960;6.188;2023-05-16T12:38:09;15.00;99.90
51615;DHT22;37695;52.960;6.188;2023-05-16T12:40:39;14.80;99.90
51615;DHT22;37695;52.960;6.188;2023-05-16T12:43:25;14.90;99.90
51615;DHT22;37695;52.960;6.188;2023-05-16T12:45:56;15.30;99.90
51615;DHT22;37695;52.960;6.188;2023-05-16T12:48:28;15.60;99.90
51615;DHT22;37695;52.960;6.188;2023-05-16T12:50:54;15.50;99.90
51615;DHT22;37695;52.960;6.188;2023-05-16T12:53:19;15.30;99.90
51615;DHT22;37695;52.960;6.188;2023-05-16T12:55:46;15.40;99.90
51615;DHT22;37695;52.960;6.188;2023-05-16T12:58:11;15.30;99.90
51615;DHT22;37695;52.960;6.188;2023-05-16T13:00:37;15.40;99.90
51615;DHT22;37695;52.960;6.188;2023-05-16T13:03:04;15.50;99.90
51615;DHT22;37695;52.960;6.188;2023-05-16T13:05:30;15.50;99.90
51615;DHT22;37695;52.960;6.188;2023-05-16T13:07:56;15.30;99.40
51615;DHT22;37695;52.960;6.188;2023-05-16T13:10:21;15.00;99.40
51615;DHT22;37695;52.960;6.188;2023-05-16T13:12:47;15.00;99.50
51615;DHT22;37695;52.960;6.188;2023-05-16T13:15:13;15.00;99.50
51615;DHT22;37695;52.960;6.188;2023-05-16T13:17:41;15.30;99.80
51615;DHT22;37695;52.960;6.188;2023-05-16T13:20:08;15.50;99.80
51615;DHT22;37695;52.960;6.188;2023-05-16T13:22:37;15.60;99.50
51615;DHT22;37695;52.960;6.188;2023-05-16T13:25:03;15.60;99.40
51615;DHT22;37695;52.960;6.188;2023-05-16T13:27:29;15.50;99.50
51615;DHT22;37695;52.960;6.188;2023-05-16T13:29:55;15.60;99.50
51615;DHT22;37695;52.960;6.188;2023-05-16T13:32:20;15.50;99.50
51615;DHT22;37695;52.960;6.188;2023-05-16T13:34:46;15.50;98.80
51615;DHT22;37695;52.960;6.188;2023-05-16T13:37:12;15.30;99.80
51615;DHT22;37695;52.960;6.188;2023-05-16T13:39:37;15.00;99.90
51615;DHT22;37695;52.960;6.188;2023-05-16T13:42:03;14.70;99.80
51615;DHT22;37695;52.960;6.188;2023-05-16T13:44:29;14.40;99.90
51615;DHT22;37695;52.960;6.188;2023-05-16T13:46:55;14.20;99.90
51615;DHT22;37695;52.960;6.188;2023-05-16T13:49:22;14.10;99.90
51615;DHT22;37695;52.960;6.188;2023-05-16T13:51:48;14.20;99.90
51615;DHT22;37695;52.960;6.188;2023-05-16T13:54:13;14.20;99.90
51615;DHT22;37695;52.960;6.188;2023-05-16T13:56:39;14.20;99.90
51615;DHT22;37695;52.960;6.188;2023-05-16T13:59:04;14.00;99.90
51615;DHT22;37695;52.960;6.188;2023-05-16T14:01:30;13.90;99.90
51615;DHT22;37695;52.960;6.188;2023-05-16T14:03:56;13.90;99.90
51615;DHT22;37695;52.960;6.188;2023-05-16T14:06:21;13.80;99.90
51615;DHT22;37695;52.960;6.188;2023-05-16T14:08:47;13.90;99.90
51615;DHT22;37695;52.960;6.188;2023-05-16T14:11:13;14.10;99.90
51615;DHT22;37695;52.960;6.188;2023-05-16T14:13:38;14.50;99.90
51615;DHT22;37695;52.960;6.188;2023-05-16T14:16:06;14.70;99.90
51615;DHT22;37695;52.960;6.188;2023-05-16T14:18:32;15.10;99.90
51615;DHT22;37695;52.960;6.188;2023-05-16T14:20:58;15.20;99.30
51615;DHT22;37695;52.960;6.188;2023-05-16T14:23:23;15.20;99.60
51615;DHT22;37695;52.960;6.188;2023-05-16T14:25:49;15.10;99.80
51615;DHT22;37695;52.960;6.188;2023-05-16T14:28:14;15.00;99.80
51615;DHT22;37695;52.960;6.188;2023-05-16T14:30:40;14.90;99.80
51615;DHT22;37695;52.960;6.188;2023-05-16T14:33:05;14.70;99.90
51615;DHT22;37695;52.960;6.188;2023-05-16T14:35:31;14.60;99.90
51615;DHT22;37695;52.960;6.188;2023-05-16T14:37:57;14.50;99.90
51615;DHT22;37695;52.960;6.188;2023-05-16T14:40:23;14.30;99.90
51615;DHT22;37695;52.960;6.188;2023-05-16T14:42:48;14.30;99.90
51615;DHT22;37695;52.960;6.188;2023-05-16T14:45:15;14.30;99.90
51615;DHT22;37695;52.960;6.188;2023-05-16T14:47:41;14.30;99.90
51615;DHT22;37695;52.960;6.188;2023-05-16T14:50:07;14.30;99.90
51615;DHT22;37695;52.960;6.188;2023-05-16T14:52:33;14.30;99.90
51615;DHT22;37695;52.960;6.188;2023-05-16T14:54:59;14.40;99.90
51615;DHT22;37695;52.960;6.188;2023-05-16T14:57:25;14.50;99.90
51615;DHT22;37695;52.960;6.188;2023-05-16T14:59:50;14.60;99.90
51615;DHT22;37695;52.960;6.188;2023-05-16T15:02:16;14.70;99.90
51615;DHT22;37695;52.960;6.188;2023-05-16T15:04:41;14.70;99.90
51615;DHT22;37695;52.960;6.188;2023-05-16T15:07:07;14.70;99.60
51615;DHT22;37695;52.960;6.188;2023-05-16T15:09:32;14.70;99.70
51615;DHT22;37695;52.960;6.188;2023-05-16T15:11:58;14.60;99.50
51615;DHT22;37695;52.960;6.188;2023-05-16T15:14:24;14.50;99.90
51615;DHT22;37695;52.960;6.188;2023-05-16T15:16:51;14.40;99.90
51615;DHT22;37695;52.960;6.188;2023-05-16T15:19:16;14.30;99.70
51615;DHT22;37695;52.960;6.188;2023-05-16T15:21:42;14.20;99.90
51615;DHT22;37695;52.960;6.188;2023-05-16T15:24:07;14.10;99.90
51615;DHT22;37695;52.960;6.188;2023-05-16T15:26:33;14.00;99.90
51615;DHT22;37695;52.960;6.188;2023-05-16T15:28:59;14.00;99.90
51615;DHT22;37695;52.960;6.188;2023-05-16T15:31:25;13.90;99.90
51615;DHT22;37695;52.960;6.188;2023-05-16T15:33:50;14.00;99.90
51615;DHT22;37695;52.960;6.188;2023-05-16T15:36:16;14.00;99.90
51615;DHT22;37695;52.960;6.188;2023-05-16T15:38:41;13.90;99.90
51615;DHT22;37695;52.960;6.188;2023-05-16T15:41:10;13.90;99.90
51615;DHT22;37695;52.960;6.188;2023-05-16T15:43:36;13.90;99.90
51615;DHT22;37695;52.960;6.188;2023-05-16T15:46:02;14.80;99.90